Time;durP1;ratioP1;P1;durP2;ratioP2;P2;SDS_P1;SDS_P2;PMS_P1;PMS_P2;Temp;Humidity;BMP_temperature;BMP_pressure;BME280_temperature;BME280_humidity;BME280_pressure;Samples;Min_cycle;Max_cycle;Signal;HPM_P1;HPM_P2
2022/12/10 00:01:05;;;;;;;33.97;16.00;;;3.90;99.10;;;;;;5004819;28;20495;-59
2022/12/10 00:03:31;;;;;;;43.03;18.90;;;4.00;99.60;;;;;;5021816;28;21121;-59
2022/12/10 00:06:01;;;;;;;37.70;16.27;;;4.00;99.40;;;;;;5025600;28;20483;-59
2022/12/10 00:08:27;;;;;;;44.67;21.73;;;4.00;99.60;;;;;;5014728;28;20911;-59
2022/12/10 00:10:55;;;;;;;35.10;14.83;;;4.00;99.40;;;;;;5018867;28;20769;-59
2022/12/10 00:13:22;;;;;;;41.63;21.73;;;4.00;99.40;;;;;;5012924;28;20482;-58
2022/12/10 00:15:49;;;;;;;31.63;15.70;;;4.10;99.60;;;;;;5009147;28;20484;-59
2022/12/10 00:18:16;;;;;;;52.37;18.10;;;4.10;99.40;;;;;;5011142;28;20485;-59
2022/12/10 00:20:43;;;;;;;27.27;14.67;;;4.10;99.50;;;;;;5013810;28;20495;-59
2022/12/10 00:23:09;;;;;;;34.43;17.77;;;4.10;99.50;;;;;;5015954;28;20493;-59
2022/12/10 00:25:36;;;;;;;33.90;16.07;;;4.10;99.50;;;;;;5013735;28;20477;-58
2022/12/10 00:28:04;;;;;;;32.83;16.33;;;4.00;99.20;;;;;;5009022;28;20485;-59
2022/12/10 00:30:31;;;;;;;43.07;19.70;;;4.00;99.30;;;;;;5020861;28;20862;-58
2022/12/10 00:32:58;;;;;;;33.67;15.07;;;4.00;99.20;;;;;;5012894;28;20473;-59
2022/12/10 00:35:25;;;;;;;46.53;20.97;;;4.00;99.40;;;;;;5017068;28;21231;-59
2022/12/10 00:37:51;;;;;;;33.67;13.93;;;3.90;99.10;;;;;;5014913;28;20493;-58
2022/12/10 00:40:18;;;;;;;32.67;15.63;;;3.90;99.10;;;;;;5013328;28;20493;-59
2022/12/10 00:42:45;;;;;;;26.53;12.33;;;3.80;98.80;;;;;;5004920;28;20490;-59
2022/12/10 00:45:13;;;;;;;30.23;14.73;;;3.80;99.10;;;;;;5007627;28;20483;-58
2022/12/10 00:47:40;;;;;;;33.53;14.33;;;;;;;;;;5038053;28;20824;-59
2022/12/10 00:50:08;;;;;;;30.23;14.97;;;3.80;99.20;;;;;;5031770;28;20487;-59
2022/12/10 00:52:34;;;;;;;30.87;16.67;;;3.80;99.10;;;;;;5019455;28;20481;-58
2022/12/10 00:55:01;;;;;;;37.87;12.90;;;3.90;99.30;;;;;;5015301;28;20511;-59
2022/12/10 00:57:28;;;;;;;45.00;19.17;;;3.90;99.30;;;;;;5013312;28;20472;-59
2022/12/10 00:59:54;;;;;;;30.63;16.57;;;3.90;99.20;;;;;;5017327;28;20858;-59
2022/12/10 01:02:22;;;;;;;39.10;18.60;;;3.90;99.30;;;;;;5019592;28;20497;-59
2022/12/10 01:04:53;;;;;;;30.13;15.50;;;3.90;99.30;;;;;;5016154;28;20476;-59
2022/12/10 01:07:19;;;;;;;46.10;20.67;;;3.90;99.20;;;;;;5020649;28;20484;-59
2022/12/10 01:09:46;;;;;;;30.03;12.53;;;3.90;99.30;;;;;;5006757;28;20897;-59
2022/12/10 01:12:20;;;;;;;28.40;13.80;;;3.90;99.30;;;;;;5027084;28;20831;-59
2022/12/10 01:14:47;;;;;;;32.63;14.70;;;3.90;99.30;;;;;;5017922;28;20489;-59
2022/12/10 01:17:13;;;;;;;37.50;17.50;;;3.90;99.10;;;;;;5015804;28;20500;-59
2022/12/10 01:19:41;;;;;;;31.33;15.77;;;3.90;99.40;;;;;;5016772;28;21126;-59
2022/12/10 01:22:08;;;;;;;29.40;15.27;;;4.00;99.30;;;;;;5016853;28;20486;-59
2022/12/10 01:24:35;;;;;;;40.30;19.13;;;4.00;99.30;;;;;;5017617;28;20897;-59
2022/12/10 01:27:02;;;;;;;34.63;15.13;;;4.00;99.10;;;;;;5016563;28;21230;-59
2022/12/10 01:29:28;;;;;;;32.17;15.50;;;4.00;99.20;;;;;;5016556;28;20493;-58
2022/12/10 01:31:57;;;;;;;37.50;16.23;;;4.00;99.20;;;;;;5012090;28;20480;-59
2022/12/10 01:34:24;;;;;;;45.20;21.60;;;4.10;99.30;;;;;;5026613;28;20488;-59
2022/12/10 01:36:54;;;;;;;29.40;12.87;;;4.10;99.50;;;;;;5023794;28;20493;-59
2022/12/10 01:39:23;;;;;;;43.60;21.83;;;4.00;99.10;;;;;;5014862;28;20496;-59
2022/12/10 01:41:52;;;;;;;35.67;17.17;;;4.00;99.30;;;;;;5016987;28;20973;-59
2022/12/10 01:44:55;;;;;;;39.07;15.90;;;3.90;99.20;;;;;;5017920;28;20497;-59
2022/12/10 01:47:23;;;;;;;45.20;21.37;;;3.90;99.20;;;;;;5034314;28;20494;-59
2022/12/10 01:49:49;;;;;;;37.17;17.40;;;3.90;99.30;;;;;;5034608;28;20546;-58
2022/12/10 01:52:18;;;;;;;38.53;17.73;;;4.00;99.50;;;;;;5019819;28;21128;-59
2022/12/10 01:54:47;;;;;;;48.80;15.07;;;4.90;99.90;;;;;;5007743;28;20497;-58
2022/12/10 01:57:18;;;;;;;38.93;16.47;;;4.00;99.50;;;;;;5032069;28;20481;-58
2022/12/10 01:59:47;;;;;;;37.57;17.10;;;4.00;99.40;;;;;;5016382;28;20853;-58
2022/12/10 02:02:20;;;;;;;40.07;18.47;;;4.00;99.40;;;;;;5018010;28;20488;-59
2022/12/10 02:04:57;;;;;;;28.60;14.83;;;4.00;99.40;;;;;;5016397;28;21170;-59
2022/12/10 02:07:31;;;;;;;45.47;17.57;;;4.00;99.50;;;;;;5022846;28;20480;-59
2022/12/10 02:10:02;;;;;;;35.50;17.97;;;4.00;99.40;;;;;;5035341;28;20476;-59
2022/12/10 02:12:35;;;;;;;41.33;20.00;;;4.00;99.20;;;;;;5035809;28;20907;-58
2022/12/10 02:15:07;;;;;;;29.70;14.40;;;4.00;99.30;;;;;;5036924;28;20476;-58
2022/12/10 02:17:39;;;;;;;46.33;22.20;;;4.00;99.20;;;;;;5031281;28;21032;-58
2022/12/10 02:20:11;;;;;;;33.17;15.07;;;4.00;99.30;;;;;;5036029;28;20483;-59
2022/12/10 02:22:43;;;;;;;34.40;16.30;;;4.00;99.40;;;;;;5035023;28;20491;-59
2022/12/10 02:25:13;;;;;;;32.37;13.73;;;4.00;99.30;;;;;;5019283;28;20485;-59
2022/12/10 02:27:47;;;;;;;37.80;17.23;;;4.10;99.30;;;;;;5024740;28;20488;-59
2022/12/10 02:30:16;;;;;;;35.50;18.70;;;4.00;99.00;;;;;;5036541;28;20568;-58
2022/12/10 02:32:45;;;;;;;38.13;13.87;;;4.00;99.30;;;;;;5038068;28;20480;-59
2022/12/10 02:35:16;;;;;;;28.27;14.60;;;4.00;99.20;;;;;;5026767;28;20873;-59
2022/12/10 02:37:48;;;;;;;35.93;17.30;;;4.00;99.10;;;;;;5001268;28;20489;-59
2022/12/10 02:40:19;;;;;;;27.60;15.30;;;4.10;99.20;;;;;;5017879;28;20483;-59
2022/12/10 02:42:49;;;;;;;30.50;16.57;;;4.00;99.10;;;;;;5024598;28;20469;-59
2022/12/10 02:45:18;;;;;;;45.93;20.47;;;4.00;99.00;;;;;;5031670;28;20505;-58
2022/12/10 02:47:45;;;;;;;28.73;15.10;;;4.00;99.00;;;;;;5051182;28;20495;-59
2022/12/10 02:50:15;;;;;;;32.17;15.37;;;3.90;99.00;;;;;;5033322;28;20502;-58
2022/12/10 02:52:42;;;;;;;40.83;15.87;;;3.90;99.30;;;;;;5034472;28;20491;-59
2022/12/10 02:55:12;;;;;;;31.77;16.07;;;3.90;99.20;;;;;;5024554;28;20839;-59
2022/12/10 02:57:48;;;;;;;29.57;15.83;;;4.00;99.20;;;;;;5014933;28;20843;-58
2022/12/10 03:00:19;;;;;;;26.93;14.57;;;3.90;99.10;;;;;;5013022;28;21100;-59
2022/12/10 03:03:07;;;;;;;24.60;14.70;;;4.00;99.20;;;;;;5015129;28;20481;-59
2022/12/10 03:05:41;;;;;;;30.37;15.03;;;4.00;99.10;;;;;;5013565;28;20489;-59
2022/12/10 03:08:13;;;;;;;29.13;14.77;;;4.00;98.90;;;;;;5027291;28;20604;-59
2022/12/10 03:10:45;;;;;;;31.53;15.23;;;4.00;98.90;;;;;;5031329;28;20487;-59
2022/12/10 03:13:15;;;;;;;33.13;16.60;;;5.10;99.50;;;;;;5032870;28;20479;-59
2022/12/10 03:15:45;;;;;;;38.93;15.27;;;3.90;99.00;;;;;;5029977;28;20949;-59
2022/12/10 03:18:15;;;;;;;25.63;14.53;;;3.90;99.00;;;;;;5033587;28;20500;-59
2022/12/10 03:20:45;;;;;;;32.07;15.90;;;3.90;98.70;;;;;;5034670;28;20833;-59
2022/12/10 03:23:17;;;;;;;31.60;17.10;;;3.90;98.90;;;;;;5029804;28;20492;-58
2022/12/10 03:25:47;;;;;;;28.00;15.77;;;3.80;98.90;;;;;;5034044;28;20926;-59
2022/12/10 03:28:15;;;;;;;28.83;13.27;;;3.80;98.90;;;;;;5025889;28;20490;-58
2022/12/10 03:30:44;;;;;;;28.80;14.23;;;3.80;99.00;;;;;;5028897;28;20914;-59
2022/12/10 03:33:11;;;;;;;36.43;16.30;;;3.90;99.00;;;;;;5029100;28;20487;-59
2022/12/10 03:35:39;;;;;;;32.00;13.00;;;3.80;98.90;;;;;;5034308;28;20965;-59
2022/12/10 03:38:06;;;;;;;26.77;14.43;;;3.90;99.00;;;;;;5034110;28;20476;-59
2022/12/10 03:40:33;;;;;;;36.80;17.10;;;3.90;99.10;;;;;;5034812;28;20476;-59
2022/12/10 03:43:00;;;;;;;42.20;14.77;;;3.80;98.90;;;;;;5034452;28;20913;-59
2022/12/10 03:45:27;;;;;;;44.93;18.80;;;3.80;98.90;;;;;;5033828;28;20530;-59
2022/12/10 03:47:55;;;;;;;28.27;13.83;;;3.80;98.70;;;;;;5033406;28;21003;-59
2022/12/10 03:50:21;;;;;;;39.60;17.27;;;3.80;98.60;;;;;;5028518;28;20507;-59
2022/12/10 03:52:50;;;;;;;24.23;12.73;;;3.70;98.60;;;;;;5013297;28;20489;-59
2022/12/10 03:55:17;;;;;;;35.63;15.67;;;3.70;98.40;;;;;;5013658;28;20508;-59
2022/12/10 03:57:44;;;;;;;36.20;14.30;;;3.60;98.50;;;;;;5013281;28;20860;-59
2022/12/10 04:00:12;;;;;;;29.70;14.63;;;3.70;98.90;;;;;;5014948;28;20489;-60
2022/12/10 04:02:39;;;;;;;26.00;12.13;;;3.70;98.70;;;;;;5014056;28;20529;-59
2022/12/10 04:05:08;;;;;;;32.63;13.90;;;3.70;98.90;;;;;;5013287;28;20567;-58
2022/12/10 04:07:35;;;;;;;35.73;16.10;;;3.70;98.60;;;;;;5011779;28;20839;-58
2022/12/10 04:10:02;;;;;;;29.63;14.53;;;3.70;98.60;;;;;;5019121;28;20491;-59
2022/12/10 04:12:29;;;;;;;34.37;15.77;;;3.60;98.40;;;;;;5020086;28;20491;-58
2022/12/10 04:17:40;;;;;;;29.50;12.60;;;3.70;98.70;;;;;;5001114;28;20479;-58
2022/12/10 04:26:51;;;;;;;23.97;13.07;;;3.70;98.60;;;;;;5019971;28;20870;-58
2022/12/10 04:28:24;;;;;;;43.13;18.73;;;3.80;98.40;;;;;;5036740;28;20487;-58
2022/12/10 04:30:51;;;;;;;20.67;10.87;;;3.80;98.70;;;;;;5039470;28;20499;-58
2022/12/10 04:33:18;;;;;;;46.53;14.10;;;3.80;98.70;;;;;;5039156;28;20487;-58
2022/12/10 04:35:46;;;;;;;31.17;13.30;;;3.80;98.80;;;;;;5038381;28;20681;-58
2022/12/10 04:38:13;;;;;;;29.83;14.67;;;3.90;98.80;;;;;;5025629;28;20496;-58
2022/12/10 04:40:39;;;;;;;26.70;13.37;;;3.90;98.80;;;;;;5049590;28;20492;-58
2022/12/10 04:43:06;;;;;;;30.27;15.00;;;3.90;98.70;;;;;;5030053;28;20835;-58
2022/12/10 04:45:35;;;;;;;43.33;16.43;;;3.90;98.70;;;;;;5031821;28;20476;-59
2022/12/10 04:48:01;;;;;;;26.33;13.90;;;3.90;98.70;;;;;;5036411;28;20875;-59
2022/12/10 04:50:28;;;;;;;39.60;17.87;;;3.80;98.40;;;;;;5038092;28;21012;-58
2022/12/10 04:52:57;;;;;;;27.97;14.80;;;3.80;98.70;;;;;;5033226;28;20480;-58
2022/12/10 04:55:23;;;;;;;49.23;16.00;;;3.80;98.60;;;;;;5034313;28;20482;-59
2022/12/10 04:57:50;;;;;;;24.50;11.80;;;3.80;98.60;;;;;;5036774;28;20562;-59
2022/12/10 05:00:17;;;;;;;42.37;15.87;;;3.80;98.70;;;;;;5037441;28;20480;-59
2022/12/10 05:02:44;;;;;;;27.23;14.37;;;3.80;98.60;;;;;;5037126;28;20714;-58
2022/12/10 05:05:10;;;;;;;26.13;13.67;;;3.80;98.60;;;;;;5036823;28;20479;-59
2022/12/10 05:07:37;;;;;;;25.53;13.20;;;3.80;98.50;;;;;;5029971;28;20480;-58
2022/12/10 05:10:06;;;;;;;29.70;12.70;;;3.70;98.40;;;;;;5036191;28;20652;-58
2022/12/10 05:12:33;;;;;;;34.63;15.80;;;;;;;;;;5011618;28;20496;-58
2022/12/10 05:15:00;;;;;;;38.33;15.30;;;;;;;;;;5030353;28;20500;-58
2022/12/10 05:17:27;;;;;;;37.57;15.90;;;3.80;98.70;;;;;;5015217;28;20474;-59
2022/12/10 05:19:54;;;;;;;30.30;12.97;;;3.80;98.60;;;;;;5017428;28;20481;-59
2022/12/10 05:25:07;;;;;;;30.00;14.57;;;3.70;98.40;;;;;;5017026;28;20554;-59
2022/12/10 05:27:34;;;;;;;22.40;13.20;;;3.70;98.60;;;;;;5014496;28;20485;-59
2022/12/10 05:30:01;;;;;;;21.77;11.30;;;3.60;98.40;;;;;;5015627;28;20994;-59
2022/12/10 05:32:27;;;;;;;41.53;20.03;;;3.60;98.60;;;;;;5016566;28;20477;-59
2022/12/10 05:34:54;;;;;;;24.20;11.80;;;3.60;98.60;;;;;;5015837;28;20485;-59
2022/12/10 05:37:21;;;;;;;45.37;16.83;;;;;;;;;;5015324;28;20503;-59
2022/12/10 05:39:48;;;;;;;24.23;13.73;;;3.60;98.70;;;;;;5016602;28;20498;-59
2022/12/10 05:42:16;;;;;;;34.03;15.23;;;1.50;97.60;;;;;;5016023;28;20481;-59
2022/12/10 05:44:43;;;;;;;26.00;12.43;;;;;;;;;;5034191;28;21160;-59
2022/12/10 05:47:10;;;;;;;34.27;16.20;;;3.60;98.60;;;;;;5039381;28;20644;-59
2022/12/10 05:49:37;;;;;;;29.40;12.97;;;3.50;98.70;;;;;;5030249;28;21154;-59
2022/12/10 05:52:04;;;;;;;28.87;14.17;;;;;;;;;;5028832;28;20490;-58
2022/12/10 05:54:31;;;;;;;35.07;16.23;;;3.60;98.50;;;;;;5045713;28;20484;-58
2022/12/10 05:56:58;;;;;;;29.23;13.27;;;3.60;98.60;;;;;;5038197;28;20495;-58
2022/12/10 05:59:26;;;;;;;40.43;18.20;;;3.70;98.70;;;;;;5039215;28;21169;-59
2022/12/10 06:01:52;;;;;;;28.60;12.90;;;3.60;98.30;;;;;;5038403;28;21204;-58
2022/12/10 06:04:19;;;;;;;38.03;16.87;;;3.60;98.50;;;;;;5038903;28;20479;-58
2022/12/10 06:06:47;;;;;;;32.07;12.93;;;3.70;98.70;;;;;;5036898;28;20483;-58
2022/12/10 06:09:14;;;;;;;27.80;13.47;;;3.70;98.70;;;;;;5038801;28;20480;-58
2022/12/10 06:11:41;;;;;;;25.20;13.23;;;3.70;98.70;;;;;;5038887;28;20484;-59
2022/12/10 06:14:07;;;;;;;29.63;13.70;;;3.70;98.90;;;;;;5039027;28;20603;-59
2022/12/10 06:16:35;;;;;;;32.33;17.20;;;3.80;98.80;;;;;;5036123;28;20530;-58
2022/12/10 06:19:02;;;;;;;34.70;17.60;;;3.80;98.80;;;;;;5037467;28;20477;-58
2022/12/10 06:21:29;;;;;;;34.43;16.83;;;3.80;98.60;;;;;;5038977;28;20480;-58
2022/12/10 06:23:56;;;;;;;25.87;13.43;;;3.80;98.70;;;;;;5039219;28;21048;-58
2022/12/10 06:26:24;;;;;;;39.23;18.23;;;3.90;98.70;;;;;;5028836;28;20488;-59
2022/12/10 06:28:51;;;;;;;33.40;10.80;;;3.90;98.70;;;;;;5018479;28;20489;-59
2022/12/10 06:31:19;;;;;;;33.00;17.00;;;3.80;98.60;;;;;;5014098;28;20465;-58
2022/12/10 06:33:48;;;;;;;27.47;13.60;;;;;;;;;;5022843;28;20838;-59
2022/12/10 06:36:16;;;;;;;40.63;14.50;;;3.80;98.70;;;;;;5034013;28;20492;-58
2022/12/10 06:38:43;;;;;;;27.90;13.70;;;3.80;98.70;;;;;;5034922;28;20472;-59
2022/12/10 06:41:13;;;;;;;32.20;15.40;;;3.80;98.70;;;;;;5039152;28;20507;-59
2022/12/10 06:43:41;;;;;;;28.37;13.00;;;;;;;;;;5037048;28;20491;-59
2022/12/10 06:46:09;;;;;;;30.13;14.70;;;3.80;98.70;;;;;;5034671;28;20476;-59
2022/12/10 06:48:36;;;;;;;25.27;13.70;;;3.80;98.50;;;;;;5034607;28;20503;-60
2022/12/10 06:51:05;;;;;;;32.73;16.37;;;3.70;98.70;;;;;;5037057;28;20488;-60
2022/12/10 06:53:33;;;;;;;32.67;15.97;;;3.70;98.60;;;;;;5034979;28;20476;-59
2022/12/10 06:56:00;;;;;;;39.37;18.03;;;3.70;98.80;;;;;;5037052;28;20484;-60
2022/12/10 06:58:28;;;;;;;41.37;20.40;;;3.70;98.60;;;;;;5038171;28;20967;-59
2022/12/10 07:00:55;;;;;;;30.90;15.00;;;3.70;98.80;;;;;;5029813;28;20480;-60
2022/12/10 07:03:21;;;;;;;30.63;14.87;;;3.80;98.80;;;;;;5039037;28;20480;-59
2022/12/10 07:05:48;;;;;;;33.53;14.83;;;3.80;98.80;;;;;;5032111;28;21035;-60
2022/12/10 07:08:17;;;;;;;29.03;14.77;;;3.80;98.90;;;;;;5028740;28;20476;-60
2022/12/10 07:10:44;;;;;;;34.60;14.93;;;3.80;98.80;;;;;;5021885;28;20833;-59
2022/12/10 07:13:11;;;;;;;44.90;21.40;;;3.80;98.90;;;;;;5033987;28;20497;-59
2022/12/10 07:15:37;;;;;;;55.90;22.83;;;3.80;98.80;;;;;;5033682;28;20950;-60
2022/12/10 07:18:04;;;;;;;36.50;17.27;;;3.80;98.90;;;;;;5034943;28;20863;-60
2022/12/10 07:20:31;;;;;;;41.13;17.60;;;3.80;98.80;;;;;;5032907;28;20473;-60
2022/12/10 07:22:58;;;;;;;29.30;14.70;;;3.80;98.80;;;;;;5035888;28;20499;-60
2022/12/10 07:25:26;;;;;;;40.53;17.87;;;3.80;98.80;;;;;;5032099;28;20483;-59
2022/12/10 07:27:53;;;;;;;34.03;15.77;;;3.80;98.60;;;;;;5022855;28;20495;-60
2022/12/10 07:30:19;;;;;;;32.40;15.33;;;3.80;98.60;;;;;;5039534;28;21395;-60
2022/12/10 07:32:46;;;;;;;29.37;15.13;;;3.70;98.70;;;;;;5027757;28;20477;-59
2022/12/10 07:35:13;;;;;;;38.03;16.87;;;3.70;98.70;;;;;;5031744;28;20822;-60
2022/12/10 07:37:39;;;;;;;40.43;17.83;;;3.70;98.70;;;;;;5026112;28;21044;-60
2022/12/10 07:40:07;;;;;;;29.00;15.40;;;3.70;98.70;;;;;;5017601;28;20480;-60
2022/12/10 07:42:35;;;;;;;29.13;14.67;;;3.70;98.80;;;;;;5034918;28;21912;-60
2022/12/10 07:45:02;;;;;;;25.90;11.63;;;3.70;98.90;;;;;;5027544;28;20493;-59
2022/12/10 07:47:28;;;;;;;44.87;17.53;;;3.80;98.80;;;;;;5037749;28;20487;-59
2022/12/10 07:49:55;;;;;;;34.67;14.77;;;3.80;98.80;;;;;;5037666;28;20867;-59
2022/12/10 07:52:22;;;;;;;42.57;17.03;;;3.80;98.80;;;;;;5037526;28;20480;-60
2022/12/10 07:54:49;;;;;;;34.93;16.50;;;3.80;98.80;;;;;;5036116;28;20483;-60
2022/12/10 07:57:15;;;;;;;34.43;15.17;;;3.80;98.80;;;;;;5038124;28;20467;-60
2022/12/10 07:59:44;;;;;;;35.27;14.80;;;;;;;;;;5040703;28;20970;-59
2022/12/10 08:02:11;;;;;;;31.60;14.07;;;3.80;98.80;;;;;;5040711;28;21036;-59
2022/12/10 08:04:38;;;;;;;40.00;14.63;;;3.70;98.70;;;;;;5031511;28;20495;-59
2022/12/10 08:07:05;;;;;;;32.50;14.53;;;3.70;98.70;;;;;;5050643;28;20492;-59
2022/12/10 08:09:31;;;;;;;54.00;19.23;;;3.30;98.60;;;;;;5034309;28;20522;-59
2022/12/10 08:11:58;;;;;;;39.43;15.83;;;3.70;98.70;;;;;;5032775;28;20503;-59
2022/12/10 08:14:25;;;;;;;40.63;17.63;;;3.70;98.60;;;;;;5017568;28;20472;-60
2022/12/10 08:16:53;;;;;;;27.00;13.13;;;3.70;98.90;;;;;;5030924;28;20898;-59
2022/12/10 08:19:20;;;;;;;37.27;16.00;;;3.80;99.00;;;;;;5042071;28;20500;-59
2022/12/10 08:21:46;;;;;;;32.60;15.17;;;3.80;98.90;;;;;;5039718;28;20480;-59
2022/12/10 08:24:13;;;;;;;35.73;13.93;;;;;;;;;;5039270;28;20981;-58
2022/12/10 08:26:40;;;;;;;35.33;15.07;;;;;;;;;;5038560;28;20498;-59
2022/12/10 08:29:07;;;;;;;38.00;15.87;;;3.80;98.60;;;;;;5039200;28;20715;-59
2022/12/10 08:31:34;;;;;;;37.13;15.30;;;3.80;98.80;;;;;;5037119;28;20741;-59
2022/12/10 08:34:02;;;;;;;39.47;15.80;;;3.80;98.80;;;;;;5037369;28;20476;-59
2022/12/10 08:36:30;;;;;;;50.10;18.00;;;3.80;98.80;;;;;;5037623;28;20484;-58
2022/12/10 08:38:57;;;;;;;49.73;16.13;;;3.70;98.80;;;;;;5020133;28;21056;-58
2022/12/10 08:41:23;;;;;;;36.33;16.37;;;3.70;98.80;;;;;;5042575;28;20487;-58
2022/12/10 08:43:54;;;;;;;37.57;14.83;;;3.80;98.70;;;;;;5029015;28;20473;-58
2022/12/10 08:46:22;;;;;;;58.20;20.53;;;3.80;98.60;;;;;;5036447;28;20518;-59
2022/12/10 08:48:49;;;;;;;38.53;17.60;;;3.70;98.70;;;;;;5037601;28;20881;-59
2022/12/10 08:51:19;;;;;;;41.37;16.87;;;3.80;98.80;;;;;;5038138;28;20858;-58
2022/12/10 08:53:47;;;;;;;43.50;14.87;;;3.70;98.70;;;;;;5023562;28;20492;-58
2022/12/10 08:56:14;;;;;;;34.20;14.47;;;3.60;98.60;;;;;;5036513;28;21015;-58
2022/12/10 08:58:41;;;;;;;29.07;14.77;;;3.60;98.80;;;;;;5037963;28;20495;-58
2022/12/10 09:01:09;;;;;;;37.90;15.07;;;3.60;98.90;;;;;;5038506;28;20495;-58
2022/12/10 09:03:38;;;;;;;33.97;14.43;;;3.60;98.90;;;;;;5037481;28;20491;-59
2022/12/10 09:06:05;;;;;;;45.93;16.97;;;3.60;99.10;;;;;;5034961;28;21078;-59
2022/12/10 09:08:34;;;;;;;39.53;16.67;;;3.60;99.00;;;;;;5035268;28;20488;-59
2022/12/10 09:11:05;;;;;;;39.57;16.83;;;3.60;99.10;;;;;;5036509;28;20511;-59
2022/12/10 09:13:32;;;;;;;35.60;14.93;;;;;;;;;;5042329;28;20575;-59
2022/12/10 09:15:59;;;;;;;36.70;17.00;;;3.60;99.00;;;;;;5034713;28;21059;-59
2022/12/10 09:18:26;;;;;;;50.97;20.10;;;3.60;98.90;;;;;;5032879;28;20827;-59
2022/12/10 09:20:53;;;;;;;34.90;16.47;;;;;;;;;;5037462;28;20507;-59
2022/12/10 09:23:20;;;;;;;48.67;20.33;;;3.80;99.10;;;;;;5032113;28;20825;-59
2022/12/10 09:25:48;;;;;;;34.20;14.60;;;3.80;99.00;;;;;;5033923;28;20643;-59
2022/12/10 09:28:15;;;;;;;29.93;14.50;;;3.80;98.70;;;;;;5014135;28;21028;-59
2022/12/10 09:30:41;;;;;;;30.13;15.47;;;3.70;98.50;;;;;;5016526;28;20477;-59
2022/12/10 09:33:08;;;;;;;38.90;16.43;;;3.70;98.60;;;;;;5015083;28;20829;-59
2022/12/10 09:35:35;;;;;;;44.03;16.77;;;;;;;;;;5016581;28;20481;-60
2022/12/10 09:38:02;;;;;;;48.77;17.00;;;3.70;98.60;;;;;;5014203;28;20489;-58
2022/12/10 09:40:36;;;;;;;36.43;15.77;;;3.80;98.80;;;;;;5019007;28;20489;-59
2022/12/10 09:43:14;;;;;;;49.83;16.73;;;3.80;98.70;;;;;;5015387;28;20472;-59
2022/12/10 09:45:51;;;;;;;27.60;13.60;;;3.80;98.60;;;;;;5022944;28;20500;-59
2022/12/10 09:48:22;;;;;;;44.27;16.07;;;3.80;98.50;;;;;;5018608;28;20473;-58
2022/12/10 09:50:54;;;;;;;29.30;13.03;;;3.90;98.60;;;;;;5016529;28;20489;-59
2022/12/10 09:53:22;;;;;;;39.50;16.30;;;3.90;98.30;;;;;;5013950;28;20890;-59
2022/12/10 09:55:50;;;;;;;29.10;13.43;;;3.90;98.30;;;;;;5026506;28;21006;-59
2022/12/10 09:58:21;;;;;;;36.23;16.23;;;3.90;98.30;;;;;;5009363;28;20823;-58
2022/12/10 10:00:51;;;;;;;28.10;12.57;;;4.00;98.10;;;;;;5030923;28;20485;-59
2022/12/10 10:03:18;;;;;;;42.20;18.60;;;4.00;98.00;;;;;;5019860;28;20485;-59
2022/12/10 10:05:48;;;;;;;31.10;14.23;;;4.00;98.20;;;;;;5018955;28;20489;-59
2022/12/10 10:08:24;;;;;;;27.90;12.27;;;4.00;98.10;;;;;;5018329;28;20485;-58
2022/12/10 10:10:50;;;;;;;36.07;17.53;;;4.00;98.00;;;;;;5027101;28;20836;-59
2022/12/10 10:13:28;;;;;;;31.27;14.20;;;4.00;98.00;;;;;;5033331;28;20489;-59
2022/12/10 10:15:56;;;;;;;28.27;13.83;;;4.00;97.90;;;;;;5027983;28;20556;-59
2022/12/10 10:18:30;;;;;;;38.53;17.17;;;4.10;98.10;;;;;;5049957;28;20503;-58
2022/12/10 10:20:58;;;;;;;26.97;13.30;;;4.10;97.90;;;;;;5036291;28;20984;-58
2022/12/10 10:23:25;;;;;;;45.67;19.47;;;4.10;97.70;;;;;;5038088;28;20684;-59
2022/12/10 10:25:51;;;;;;;27.53;13.80;;;4.20;97.70;;;;;;5036141;28;20484;-59
2022/12/10 10:28:23;;;;;;;39.73;15.00;;;4.20;97.50;;;;;;5018804;28;20857;-59
2022/12/10 10:30:53;;;;;;;32.03;13.20;;;4.10;97.80;;;;;;5018192;28;20874;-59
2022/12/10 10:33:20;;;;;;;33.83;13.53;;;4.10;97.70;;;;;;5020152;28;20883;-59
2022/12/10 10:35:50;;;;;;;22.40;11.90;;;4.20;97.70;;;;;;5017971;28;20510;-60
2022/12/10 10:38:22;;;;;;;38.93;16.17;;;4.20;97.80;;;;;;5015589;28;20812;-59
2022/12/10 10:40:53;;;;;;;24.13;13.10;;;4.10;97.20;;;;;;5016622;28;20563;-59
2022/12/10 10:43:24;;;;;;;36.23;16.60;;;7.60;99.20;;;;;;5018481;28;20517;-59
2022/12/10 10:45:54;;;;;;;30.83;16.17;;;4.20;97.50;;;;;;5016763;28;20485;-59
2022/12/10 10:48:24;;;;;;;47.30;17.57;;;4.30;97.40;;;;;;5014122;28;21139;-59
2022/12/10 10:50:53;;;;;;;28.00;11.07;;;4.30;97.30;;;;;;5017222;28;20497;-59
2022/12/10 10:53:30;;;;;;;35.43;15.53;;;4.30;97.20;;;;;;5015680;28;20493;-59
2022/12/10 10:55:59;;;;;;;36.70;15.57;;;4.30;97.10;;;;;;5013455;28;20512;-59
2022/12/10 10:58:28;;;;;;;32.70;14.00;;;4.40;97.30;;;;;;5025133;28;20476;-59
2022/12/10 11:01:01;;;;;;;28.00;12.37;;;4.40;96.90;;;;;;5029876;28;20488;-59
2022/12/10 11:03:31;;;;;;;34.43;15.13;;;4.40;96.90;;;;;;5020434;28;20477;-60
2022/12/10 11:05:59;;;;;;;38.20;17.53;;;4.40;97.20;;;;;;5014512;28;20485;-60
2022/12/10 11:08:29;;;;;;;36.90;16.03;;;4.40;96.90;;;;;;5016263;28;20856;-59
2022/12/10 11:11:02;;;;;;;26.47;13.77;;;4.40;96.70;;;;;;5017929;28;20488;-60
2022/12/10 11:13:32;;;;;;;59.43;20.30;;;4.40;96.90;;;;;;5023198;28;20480;-59
2022/12/10 11:16:09;;;;;;;77.23;30.13;;;4.40;96.90;;;;;;5035007;28;20480;-60
2022/12/10 11:18:39;;;;;;;20.87;11.17;;;4.40;96.70;;;;;;5023025;28;20483;-59
2022/12/10 11:21:16;;;;;;;34.27;15.87;;;4.30;96.50;;;;;;5027990;28;21330;-59
2022/12/10 11:23:46;;;;;;;23.23;13.70;;;;;;;;;;5011149;28;20557;-59
2022/12/10 11:26:25;;;;;;;30.03;13.90;;;4.30;96.70;;;;;;5024565;28;20493;-59
2022/12/10 11:29:05;;;;;;;29.23;13.97;;;4.30;96.80;;;;;;5032621;28;20489;-59
2022/12/10 11:31:51;;;;;;;46.47;19.47;;;4.30;96.70;;;;;;5013598;28;20484;-59
2022/12/10 11:34:24;;;;;;;47.85;15.65;;;4.20;96.60;;;;;;5014363;28;20535;-59
2022/12/10 11:37:04;;;;;;;28.10;14.53;;;4.20;96.50;;;;;;5015148;28;20590;-59
2022/12/10 11:39:51;;;;;;;45.13;17.93;;;4.20;96.70;;;;;;5027709;28;20820;-59
2022/12/10 11:42:25;;;;;;;37.50;16.13;;;4.20;96.70;;;;;;5038803;28;20472;-60
2022/12/10 11:45:00;;;;;;;29.97;15.50;;;4.30;96.90;;;;;;5020958;28;21019;-59
2022/12/10 11:47:45;;;;;;;47.10;19.43;;;4.30;96.50;;;;;;5028064;28;20513;-60
2022/12/10 11:50:25;;;;;;;31.93;11.50;;;4.20;96.50;;;;;;5016196;28;20829;-59
2022/12/10 11:53:09;;;;;;;33.00;14.77;;;4.20;96.50;;;;;;5026922;28;20472;-60
2022/12/10 11:55:44;;;;;;;27.70;12.83;;;4.20;96.40;;;;;;5014364;28;20477;-60
2022/12/10 11:58:28;;;;;;;32.93;14.43;;;4.30;96.30;;;;;;5006220;28;20476;-59
2022/12/10 12:01:04;;;;;;;27.67;13.10;;;4.80;97.00;;;;;;4998625;28;20966;-60
2022/12/10 12:03:52;;;;;;;49.37;18.87;;;4.40;96.60;;;;;;5004990;28;21231;-59
2022/12/10 12:06:47;;;;;;;43.50;17.77;;;4.40;96.40;;;;;;5007524;28;20849;-59
2022/12/10 12:09:22;;;;;;;49.00;18.67;;;4.40;96.90;;;;;;5000269;28;20513;-59
2022/12/10 12:12:01;;;;;;;38.57;14.50;;;4.40;96.30;;;;;;5008976;28;20735;-59
2022/12/10 12:14:31;;;;;;;34.13;13.57;;;4.60;96.80;;;;;;5010504;28;20485;-59
2022/12/10 12:17:06;;;;;;;21.73;11.70;;;4.70;96.60;;;;;;5014245;28;20495;-59
2022/12/10 12:19:38;;;;;;;41.73;14.10;;;5.10;97.20;;;;;;5010796;28;20688;-59
2022/12/10 12:22:15;;;;;;;27.50;14.23;;;5.10;95.80;;;;;;5010935;28;20488;-60
2022/12/10 12:24:45;;;;;;;27.73;12.40;;;5.40;96.30;;;;;;5004272;28;20560;-59
2022/12/10 12:27:22;;;;;;;27.20;12.33;;;5.70;96.90;;;;;;5015778;28;20479;-59
2022/12/10 12:29:58;;;;;;;23.00;12.13;;;5.90;96.40;;;;;;5022731;28;20473;-60
2022/12/10 12:32:31;;;;;;;40.93;18.10;;;6.10;96.30;;;;;;5012764;28;20484;-60
2022/12/10 12:35:01;;;;;;;22.30;11.40;;;6.40;96.50;;;;;;5014320;28;20490;-60
2022/12/10 12:37:35;;;;;;;28.00;12.60;;;6.50;94.10;;;;;;5011598;28;20486;-60
2022/12/10 12:40:11;;;;;;;24.80;13.33;;;6.40;93.20;;;;;;5016946;28;20484;-60
2022/12/10 12:42:45;;;;;;;27.30;12.90;;;6.40;93.70;;;;;;5020432;28;20563;-60
2022/12/10 12:45:15;;;;;;;24.67;12.70;;;6.60;94.30;;;;;;5022258;28;20526;-60
2022/12/10 12:47:49;;;;;;;29.70;13.90;;;6.90;95.20;;;;;;5007216;28;20489;-60
2022/12/10 12:50:26;;;;;;;38.10;16.50;;;7.00;94.60;;;;;;5014391;28;20472;-60
2022/12/10 12:52:57;;;;;;;25.77;12.23;;;7.20;94.90;;;;;;5015505;28;21008;-60
2022/12/10 12:55:30;;;;;;;34.27;16.30;;;7.40;95.00;;;;;;5023355;28;20893;-60
2022/12/10 12:58:11;;;;;;;27.90;14.03;;;7.50;94.20;;;;;;5013949;28;21116;-60
2022/12/10 13:00:41;;;;;;;28.57;12.10;;;7.60;94.00;;;;;;5015472;28;20471;-60
2022/12/10 13:03:21;;;;;;;20.37;11.50;;;7.70;93.80;;;;;;5020534;28;20469;-60